createdAt,value
2018-02-12T00:00:43.020Z,994.14
2018-02-12T00:01:43.096Z,994.14
2018-02-12T00:02:43.095Z,994.16
2018-02-12T00:03:43.136Z,994.12
2018-02-12T00:04:43.132Z,994.14
2018-02-12T00:05:43.028Z,994.19
2018-02-12T00:06:43.147Z,994.23
2018-02-12T00:07:43.024Z,994.17
2018-02-12T00:08:43.105Z,994.20
2018-02-12T00:09:43.108Z,994.20
2018-02-12T00:10:43.140Z,994.24
2018-02-12T00:11:43.163Z,994.24
2018-02-12T00:12:43.121Z,994.20
2018-02-12T00:13:43.033Z,994.20
2018-02-12T00:14:43.062Z,994.22
2018-02-12T00:15:43.061Z,994.25
2018-02-12T00:16:43.018Z,994.23
2018-02-12T00:17:42.969Z,994.23
2018-02-12T00:18:43.028Z,994.24
2018-02-12T00:19:43.064Z,994.28
2018-02-12T00:20:42.974Z,994.30
2018-02-12T00:21:43.066Z,994.35
2018-02-12T00:22:43.064Z,994.40
2018-02-12T00:23:43.121Z,994.39
2018-02-12T00:24:43.018Z,994.43
2018-02-12T00:25:43.139Z,994.44
2018-02-12T00:26:43.132Z,994.44
2018-02-12T00:27:43.082Z,994.48
2018-02-12T00:28:43.040Z,994.46
2018-02-12T00:29:43.083Z,994.48
2018-02-12T00:30:43.089Z,994.49
2018-02-12T00:31:43.079Z,994.47
2018-02-12T00:32:43.022Z,994.51
2018-02-12T00:33:43.013Z,994.53
2018-02-12T00:34:43.101Z,994.51
2018-02-12T00:35:43.108Z,994.50
2018-02-12T00:36:43.077Z,994.47
2018-02-12T00:37:43.060Z,994.47
2018-02-12T00:38:43.161Z,994.45
2018-02-12T00:39:43.105Z,994.49
2018-02-12T00:40:43.084Z,994.49
2018-02-12T00:41:43.175Z,994.46
2018-02-12T00:42:43.084Z,994.43
2018-02-12T00:43:43.099Z,994.47
2018-02-12T00:44:43.095Z,994.45
2018-02-12T00:45:43.136Z,994.44
2018-02-12T00:46:43.097Z,994.44
2018-02-12T00:47:43.114Z,994.47
2018-02-12T00:48:43.162Z,994.43
2018-02-12T00:49:43.050Z,994.42
2018-02-12T00:50:43.110Z,994.46
2018-02-12T00:51:43.180Z,994.48
2018-02-12T00:52:43.102Z,994.48
2018-02-12T00:53:43.102Z,994.48
2018-02-12T00:54:43.136Z,994.50
2018-02-12T00:55:43.041Z,994.51
2018-02-12T00:56:43.159Z,994.47
2018-02-12T00:57:43.039Z,994.51
2018-02-12T00:58:43.178Z,994.47
2018-02-12T00:59:43.101Z,994.48
2018-02-12T01:00:43.041Z,994.49
2018-02-12T01:01:43.179Z,994.49
2018-02-12T01:02:43.178Z,994.53
2018-02-12T01:03:43.281Z,994.54
2018-02-12T01:04:43.162Z,994.54
2018-02-12T01:05:43.173Z,994.57
2018-02-12T01:06:43.044Z,994.53
2018-02-12T01:07:43.116Z,994.59
2018-02-12T01:08:43.145Z,994.63
2018-02-12T01:09:43.105Z,994.61
2018-02-12T01:10:43.144Z,994.67
2018-02-12T01:11:43.051Z,994.64
2018-02-12T01:12:43.119Z,994.64
2018-02-12T01:13:43.168Z,994.69
2018-02-12T01:14:43.145Z,994.66
2018-02-12T01:15:43.165Z,994.64
2018-02-12T01:16:43.066Z,994.64
2018-02-12T01:17:43.148Z,994.66
2018-02-12T01:18:43.088Z,994.60
2018-02-12T01:19:43.149Z,994.71
2018-02-12T01:20:43.092Z,994.65
2018-02-12T01:21:43.170Z,994.67
2018-02-12T01:22:43.153Z,994.68
2018-02-12T01:23:43.085Z,994.72
2018-02-12T01:24:43.150Z,994.74
2018-02-12T01:25:43.157Z,994.71
2018-02-12T01:26:43.091Z,994.65
2018-02-12T01:27:43.159Z,994.67
2018-02-12T01:28:43.087Z,994.71
2018-02-12T01:29:43.089Z,994.77
2018-02-12T01:30:43.158Z,994.77
2018-02-12T01:31:43.090Z,994.80
2018-02-12T01:32:43.162Z,994.83
2018-02-12T01:33:43.121Z,994.78
2018-02-12T01:34:43.188Z,994.82
2018-02-12T01:35:43.126Z,994.85
2018-02-12T01:36:43.140Z,994.85
2018-02-12T01:37:43.168Z,994.82
2018-02-12T01:38:43.159Z,994.85
2018-02-12T01:39:43.135Z,994.79
2018-02-12T01:40:43.194Z,994.78
2018-02-12T01:41:43.169Z,994.73
2018-02-12T01:42:43.131Z,994.74
2018-02-12T01:43:43.172Z,994.75
2018-02-12T01:44:43.103Z,994.77
2018-02-12T01:45:43.173Z,994.76
2018-02-12T01:46:43.099Z,994.77
2018-02-12T01:47:43.100Z,994.80
2018-02-12T01:48:43.173Z,994.84
2018-02-12T01:49:43.170Z,994.77
2018-02-12T01:50:43.098Z,994.81
2018-02-12T01:51:43.098Z,994.81
2018-02-12T01:52:43.180Z,994.86
2018-02-12T01:53:43.196Z,994.76
2018-02-12T01:54:43.109Z,994.79
2018-02-12T01:55:43.219Z,994.85
2018-02-12T01:56:43.208Z,994.82
2018-02-12T01:57:43.096Z,994.83
2018-02-12T01:58:43.199Z,994.87
2018-02-12T01:59:43.151Z,994.84
2018-02-12T02:00:43.201Z,994.85
2018-02-12T02:01:43.246Z,994.86
2018-02-12T02:02:43.204Z,994.86
2018-02-12T02:03:43.116Z,994.88
2018-02-12T02:04:43.211Z,994.86
2018-02-12T02:05:43.139Z,994.85
2018-02-12T02:06:43.208Z,994.93
2018-02-12T02:07:43.179Z,994.99
2018-02-12T02:08:43.113Z,994.95
2018-02-12T02:09:43.107Z,995.04
2018-02-12T02:10:43.180Z,994.97
2018-02-12T02:11:43.161Z,995.00
2018-02-12T02:12:43.185Z,995.01
2018-02-12T02:13:43.150Z,995.03
2018-02-12T02:14:43.106Z,995.02
2018-02-12T02:15:43.180Z,995.02
2018-02-12T02:16:43.182Z,995.02
2018-02-12T02:17:43.111Z,995.07
2018-02-12T02:18:43.081Z,995.08
2018-02-12T02:19:43.150Z,995.04
2018-02-12T02:20:43.106Z,995.02
2018-02-12T02:21:43.147Z,995.00
2018-02-12T02:22:43.113Z,995.04
2018-02-12T02:23:43.188Z,995.05
2018-02-12T02:24:43.091Z,995.07
2018-02-12T02:25:43.271Z,995.03
2018-02-12T02:26:43.220Z,995.07
2018-02-12T02:27:43.158Z,995.06
2018-02-12T02:28:43.111Z,995.01
2018-02-12T02:29:43.095Z,995.04
2018-02-12T02:30:43.111Z,995.02
2018-02-12T02:31:43.198Z,995.02
2018-02-12T02:32:43.254Z,995.02
2018-02-12T02:33:43.095Z,995.01
2018-02-12T02:34:43.133Z,995.03
2018-02-12T02:35:43.223Z,995.03
2018-02-12T02:36:43.196Z,995.01
2018-02-12T02:37:43.194Z,994.99
2018-02-12T02:38:43.239Z,994.96
2018-02-12T02:39:43.134Z,995.00
2018-02-12T02:40:43.119Z,995.03
2018-02-12T02:41:43.243Z,995.01
2018-02-12T02:42:43.105Z,995.00
2018-02-12T02:43:43.196Z,995.02
2018-02-12T02:44:43.158Z,995.05
2018-02-12T02:45:43.230Z,995.03
2018-02-12T02:46:43.240Z,995.00
2018-02-12T02:47:43.176Z,995.01
2018-02-12T02:48:43.234Z,995.01
2018-02-12T02:49:43.166Z,995.04
2018-02-12T02:50:43.165Z,995.04
2018-02-12T02:51:43.177Z,995.04
2018-02-12T02:52:43.216Z,995.07
2018-02-12T02:53:43.181Z,995.09
2018-02-12T02:54:43.213Z,995.10
2018-02-12T02:55:43.150Z,995.08
2018-02-12T02:56:43.145Z,995.14
2018-02-12T02:57:43.305Z,995.10
2018-02-12T02:58:43.147Z,995.11
2018-02-12T02:59:43.214Z,995.11
2018-02-12T03:00:43.107Z,995.17
2018-02-12T03:01:43.142Z,995.12
2018-02-12T03:02:43.216Z,995.18
2018-02-12T03:03:43.143Z,995.19
2018-02-12T03:04:43.248Z,995.21
2018-02-12T03:05:43.219Z,995.20
2018-02-12T03:06:43.184Z,995.23
2018-02-12T03:07:43.171Z,995.20
2018-02-12T03:08:43.249Z,995.20
2018-02-12T03:09:43.237Z,995.24
2018-02-12T03:10:43.194Z,995.26
2018-02-12T03:11:43.176Z,995.26
2018-02-12T03:12:43.185Z,995.31
2018-02-12T03:13:43.159Z,995.30
2018-02-12T03:14:43.246Z,995.30
2018-02-12T03:15:43.256Z,995.31
2018-02-12T03:16:43.137Z,995.36
2018-02-12T03:17:43.159Z,995.31
2018-02-12T03:18:43.162Z,995.38
2018-02-12T03:19:43.260Z,995.43
2018-02-12T03:20:43.204Z,995.43
2018-02-12T03:21:43.228Z,995.40
2018-02-12T03:22:43.250Z,995.40
2018-02-12T03:23:43.188Z,995.38
2018-02-12T03:24:43.165Z,995.33
2018-02-12T03:25:43.196Z,995.43
2018-02-12T03:26:43.226Z,995.37
2018-02-12T03:27:43.204Z,995.43
2018-02-12T03:28:43.197Z,995.40
2018-02-12T03:29:43.205Z,995.44
2018-02-12T03:30:43.211Z,995.45
2018-02-12T03:31:43.228Z,995.50
2018-02-12T03:32:43.287Z,995.48
2018-02-12T03:33:43.255Z,995.49
2018-02-12T03:34:43.121Z,995.50
2018-02-12T03:35:43.233Z,995.52
2018-02-12T03:36:43.163Z,995.47
2018-02-12T03:37:43.231Z,995.45
2018-02-12T03:38:43.237Z,995.47
2018-02-12T03:39:43.167Z,995.54
2018-02-12T03:40:43.171Z,995.54
2018-02-12T03:41:43.168Z,995.49
2018-02-12T03:42:43.239Z,995.53
2018-02-12T03:43:43.182Z,995.52
2018-02-12T03:44:43.242Z,995.53
2018-02-12T03:45:43.263Z,995.56
2018-02-12T03:46:43.200Z,995.56
2018-02-12T03:47:43.244Z,995.58
2018-02-12T03:48:43.142Z,995.59
2018-02-12T03:49:43.202Z,995.61
2018-02-12T03:50:43.268Z,995.57
2018-02-12T03:51:43.243Z,995.63
2018-02-12T03:52:43.268Z,995.64
2018-02-12T03:53:43.169Z,995.68
2018-02-12T03:54:43.180Z,995.69
2018-02-12T03:55:43.206Z,995.74
2018-02-12T03:56:43.244Z,995.67
2018-02-12T03:57:43.255Z,995.75
2018-02-12T03:58:43.176Z,995.80
2018-02-12T03:59:43.248Z,995.80
2018-02-12T04:00:43.270Z,995.84
2018-02-12T04:01:43.180Z,995.84
2018-02-12T04:02:43.254Z,995.86
2018-02-12T04:03:43.181Z,995.86
2018-02-12T04:04:43.281Z,995.91
2018-02-12T04:05:43.167Z,995.90
2018-02-12T04:06:43.188Z,995.92
2018-02-12T04:07:43.214Z,995.92
2018-02-12T04:08:43.191Z,995.95
2018-02-12T04:09:43.233Z,995.97
2018-02-12T04:10:43.226Z,995.99
2018-02-12T04:11:43.280Z,995.94
2018-02-12T04:12:43.279Z,995.99
2018-02-12T04:13:43.214Z,995.96
2018-02-12T04:14:43.193Z,996.03
2018-02-12T04:15:43.187Z,995.98
2018-02-12T04:16:43.188Z,996.03
2018-02-12T04:17:43.190Z,996.01
2018-02-12T04:18:43.261Z,996.04
2018-02-12T04:19:43.261Z,995.99
2018-02-12T04:20:43.261Z,996.03
2018-02-12T04:21:43.191Z,996.07
2018-02-12T04:22:43.263Z,996.09
2018-02-12T04:23:43.260Z,996.11
2018-02-12T04:24:43.284Z,996.06
2018-02-12T04:25:43.266Z,996.07
2018-02-12T04:26:43.260Z,996.09
2018-02-12T04:27:43.282Z,996.10
2018-02-12T04:28:43.240Z,996.14
2018-02-12T04:29:43.237Z,996.16
2018-02-12T04:30:43.262Z,996.10
2018-02-12T04:31:43.264Z,996.14
2018-02-12T04:32:43.232Z,996.18
2018-02-12T04:33:43.285Z,996.14
2018-02-12T04:34:43.169Z,996.14
2018-02-12T04:35:43.242Z,996.13
2018-02-12T04:36:43.264Z,996.12
2018-02-12T04:37:43.328Z,996.17
2018-02-12T04:38:43.301Z,996.13
2018-02-12T04:39:43.270Z,996.11
2018-02-12T04:40:43.246Z,996.14
2018-02-12T04:41:43.248Z,996.14
2018-02-12T04:42:43.175Z,996.15
2018-02-12T04:43:43.268Z,996.19
2018-02-12T04:44:43.179Z,996.14
2018-02-12T04:45:43.265Z,996.14
2018-02-12T04:46:43.211Z,996.11
2018-02-12T04:47:43.193Z,996.13
2018-02-12T04:48:43.194Z,996.13
2018-02-12T04:49:43.228Z,996.16
2018-02-12T04:50:43.183Z,996.17
2018-02-12T04:51:43.197Z,996.13
2018-02-12T04:52:43.208Z,996.18
2018-02-12T04:53:43.273Z,996.17
2018-02-12T04:54:43.276Z,996.18
2018-02-12T04:55:43.187Z,996.19
2018-02-12T04:56:43.277Z,996.23
2018-02-12T04:57:43.199Z,996.24
2018-02-12T04:58:43.207Z,996.22
2018-02-12T04:59:43.200Z,996.27
2018-02-12T05:00:43.203Z,996.25
2018-02-12T05:01:43.207Z,996.25
2018-02-12T05:02:43.206Z,996.21
2018-02-12T05:03:43.283Z,996.22
2018-02-12T05:04:43.315Z,996.27
2018-02-12T05:05:43.220Z,996.26
2018-02-12T05:06:43.290Z,996.18
2018-02-12T05:07:43.258Z,996.23
2018-02-12T05:08:43.221Z,996.23
2018-02-12T05:09:43.293Z,996.25
2018-02-12T05:10:43.218Z,996.25
2018-02-12T05:11:43.224Z,996.23
2018-02-12T05:12:43.224Z,996.26
2018-02-12T05:13:43.298Z,996.25
2018-02-12T05:14:43.226Z,996.26
2018-02-12T05:15:43.179Z,996.28
2018-02-12T05:16:43.226Z,996.26
2018-02-12T05:17:43.291Z,996.26
2018-02-12T05:18:43.226Z,996.26
2018-02-12T05:19:43.297Z,996.26
2018-02-12T05:20:43.188Z,996.26
2018-02-12T05:21:43.297Z,996.26
2018-02-12T05:22:43.300Z,996.26
2018-02-12T05:23:43.228Z,996.26
2018-02-12T05:24:43.262Z,996.26
2018-02-12T05:25:43.271Z,996.26
2018-02-12T05:26:43.241Z,996.26
2018-02-12T05:27:43.275Z,996.26
2018-02-12T05:28:43.336Z,996.26
2018-02-12T05:29:43.305Z,996.26
2018-02-12T05:30:43.268Z,996.26
2018-02-12T05:31:43.341Z,996.26
2018-02-12T05:32:43.330Z,996.26
2018-02-12T05:33:43.336Z,996.26
2018-02-12T05:34:43.306Z,996.26
2018-02-12T05:35:43.238Z,996.26
2018-02-12T05:36:43.310Z,996.26
2018-02-12T05:37:43.307Z,996.26
2018-02-12T05:38:43.308Z,996.26
2018-02-12T05:39:43.311Z,996.26
2018-02-12T05:40:43.248Z,996.26
2018-02-12T05:41:43.311Z,996.26
2018-02-12T05:42:43.312Z,996.26
2018-02-12T05:43:43.244Z,996.26
2018-02-12T05:44:43.249Z,996.26
2018-02-12T05:45:43.276Z,996.26
2018-02-12T05:46:43.277Z,996.26
2018-02-12T05:47:43.275Z,996.26
2018-02-12T05:48:43.238Z,996.26
2018-02-12T05:49:43.312Z,996.26
2018-02-12T05:50:43.292Z,996.26
2018-02-12T05:51:43.314Z,996.26
2018-02-12T05:52:43.348Z,996.26
2018-02-12T05:53:43.314Z,996.26
2018-02-12T05:54:43.355Z,996.26
2018-02-12T05:55:43.313Z,996.26
2018-02-12T05:56:43.297Z,996.26
2018-02-12T05:57:43.345Z,996.26
2018-02-12T05:58:43.320Z,996.26
2018-02-12T05:59:43.319Z,996.26
2018-02-12T06:00:43.352Z,996.26
2018-02-12T06:01:43.295Z,996.26
2018-02-12T06:02:43.285Z,996.26
2018-02-12T06:03:43.318Z,996.26
2018-02-12T06:04:43.344Z,996.26
2018-02-12T06:05:43.321Z,996.26
2018-02-12T06:06:43.261Z,996.26
2018-02-12T06:07:43.267Z,996.26
2018-02-12T06:08:43.308Z,996.26
2018-02-12T06:09:43.345Z,996.26
2018-02-12T06:10:43.270Z,996.26
2018-02-12T06:11:43.299Z,996.26
2018-02-12T06:12:43.389Z,996.26
2018-02-12T06:13:43.327Z,996.26
2018-02-12T06:14:43.268Z,996.26
2018-02-12T06:15:43.332Z,996.26
2018-02-12T06:16:43.367Z,996.26
2018-02-12T06:17:43.327Z,996.26
2018-02-12T06:18:43.265Z,996.26
2018-02-12T06:19:43.371Z,996.26
2018-02-12T06:20:43.249Z,996.26
2018-02-12T06:21:43.249Z,996.26
2018-02-12T06:22:43.359Z,996.26
2018-02-12T06:23:43.372Z,996.26
2018-02-12T06:24:43.314Z,996.26
2018-02-12T06:25:43.269Z,996.26
2018-02-12T06:26:43.321Z,996.26
2018-02-12T06:27:43.269Z,996.26
2018-02-12T06:28:43.274Z,996.26
2018-02-12T06:29:43.293Z,996.26
2018-02-12T06:30:43.318Z,996.26
2018-02-12T06:31:43.202Z,996.26
2018-02-12T06:32:43.295Z,996.26
2018-02-12T06:33:43.211Z,996.26
2018-02-12T06:34:43.265Z,996.26
2018-02-12T06:35:43.315Z,996.26
2018-02-12T06:36:43.340Z,996.26
2018-02-12T06:37:43.381Z,996.26
2018-02-12T06:38:43.371Z,996.26
2018-02-12T06:39:43.305Z,996.26
2018-02-12T06:40:43.342Z,996.26
2018-02-12T06:41:43.318Z,996.26
2018-02-12T06:42:43.314Z,996.26
2018-02-12T06:43:43.343Z,996.26
2018-02-12T06:44:43.271Z,996.26
2018-02-12T06:45:43.307Z,996.26
2018-02-12T06:46:43.310Z,996.26
2018-02-12T06:47:43.265Z,996.26
2018-02-12T06:48:43.343Z,996.26
2018-02-12T06:49:43.267Z,996.26
2018-02-12T06:50:43.342Z,996.26
2018-02-12T06:51:43.314Z,996.26
2018-02-12T06:52:43.342Z,996.26
2018-02-12T06:53:43.269Z,996.26
2018-02-12T06:54:43.316Z,996.26
2018-02-12T06:55:43.346Z,996.26
2018-02-12T06:56:43.348Z,996.26
2018-02-12T06:57:43.284Z,996.26
2018-02-12T06:58:43.284Z,996.26
2018-02-12T06:59:43.349Z,996.26
2018-02-12T07:00:43.345Z,996.26
2018-02-12T07:01:43.275Z,996.26
2018-02-12T07:02:43.275Z,996.26
2018-02-12T07:03:43.247Z,996.26
2018-02-12T07:04:43.359Z,996.26
2018-02-12T07:05:43.295Z,996.26
2018-02-12T07:06:43.399Z,996.26
2018-02-12T07:07:43.292Z,996.26
2018-02-12T07:08:43.292Z,996.26
2018-02-12T07:09:43.364Z,996.26
2018-02-12T07:10:43.298Z,996.26
2018-02-12T07:11:43.363Z,996.26
2018-02-12T07:12:43.295Z,996.26
2018-02-12T07:13:43.367Z,996.26
2018-02-12T07:14:43.396Z,996.26
2018-02-12T07:15:43.401Z,996.26
2018-02-12T07:16:43.287Z,996.26
2018-02-12T07:17:43.362Z,996.26
2018-02-12T07:18:43.381Z,996.26
2018-02-12T07:19:43.308Z,996.26
2018-02-12T07:20:43.364Z,996.26
2018-02-12T07:21:43.334Z,996.26
2018-02-12T07:22:43.311Z,996.26
2018-02-12T07:23:43.375Z,996.26
2018-02-12T07:24:43.301Z,996.26
2018-02-12T07:25:43.330Z,996.26
2018-02-12T07:26:43.368Z,996.26
2018-02-12T07:27:43.305Z,996.26
2018-02-12T07:28:43.373Z,996.26
2018-02-12T07:29:43.307Z,996.26
2018-02-12T07:30:43.374Z,996.26
2018-02-12T07:31:43.377Z,996.26
2018-02-12T07:32:43.313Z,996.26
2018-02-12T07:33:43.372Z,996.26
2018-02-12T07:34:43.307Z,996.26
2018-02-12T07:35:43.333Z,996.26
2018-02-12T07:36:43.375Z,996.26
2018-02-12T07:37:43.330Z,996.26
2018-02-12T07:38:43.304Z,996.26
2018-02-12T07:39:43.364Z,996.26
2018-02-12T07:40:43.437Z,996.26
2018-02-12T07:41:43.300Z,996.26
2018-02-12T07:42:43.268Z,996.26
2018-02-12T07:43:43.323Z,996.26
2018-02-12T07:44:43.379Z,996.26
2018-02-12T07:45:43.409Z,996.26
2018-02-12T07:46:43.350Z,996.26
2018-02-12T07:47:43.286Z,996.26
2018-02-12T07:48:43.286Z,996.26
2018-02-12T07:49:43.384Z,996.26
2018-02-12T07:50:43.352Z,996.26
2018-02-12T07:51:43.413Z,996.26
2018-02-12T07:52:43.422Z,996.26
2018-02-12T07:53:43.306Z,996.26
2018-02-12T07:54:43.354Z,996.26
2018-02-12T07:55:43.321Z,996.26
2018-02-12T07:56:43.395Z,996.26
2018-02-12T07:57:43.325Z,996.26
2018-02-12T07:58:43.392Z,996.26
2018-02-12T07:59:43.390Z,996.26
2018-02-12T08:00:43.325Z,996.26
2018-02-12T08:01:43.401Z,996.26
2018-02-12T08:02:43.324Z,996.26
2018-02-12T08:03:43.392Z,996.26
2018-02-12T08:04:43.332Z,996.26
2018-02-12T08:05:43.399Z,996.26
2018-02-12T08:06:43.326Z,996.26
2018-02-12T08:07:43.402Z,996.26
2018-02-12T08:08:43.333Z,996.26
2018-02-12T08:09:43.402Z,996.26
2018-02-12T08:10:43.329Z,996.26
2018-02-12T08:11:43.399Z,996.26
2018-02-12T08:12:43.328Z,996.26
2018-02-12T08:13:43.405Z,996.26
2018-02-12T08:14:43.404Z,996.26
2018-02-12T08:15:43.400Z,996.26
2018-02-12T08:16:43.337Z,996.26
2018-02-12T08:17:43.472Z,996.26
2018-02-12T08:18:43.403Z,996.26
2018-02-12T08:19:43.345Z,996.26
2018-02-12T08:20:43.405Z,996.26
2018-02-12T08:21:43.336Z,996.26
2018-02-12T08:22:43.367Z,996.26
2018-02-12T08:23:43.336Z,996.26
2018-02-12T08:24:43.413Z,996.26
2018-02-12T08:25:43.407Z,996.26
2018-02-12T08:26:43.337Z,996.26
2018-02-12T08:27:43.410Z,996.26
2018-02-12T08:28:43.399Z,996.26
2018-02-12T08:29:43.347Z,996.26
2018-02-12T08:30:43.415Z,996.26
2018-02-12T08:31:43.342Z,996.26
2018-02-12T08:32:43.416Z,996.26
2018-02-12T08:33:43.346Z,996.26
2018-02-12T08:34:43.343Z,996.26
2018-02-12T08:35:43.400Z,996.26
2018-02-12T08:36:43.406Z,996.26
2018-02-12T08:37:43.375Z,996.26
2018-02-12T08:38:43.340Z,996.26
2018-02-12T08:39:43.398Z,996.26
2018-02-12T08:40:43.334Z,996.26
2018-02-12T08:41:43.371Z,996.26
2018-02-12T08:42:43.348Z,996.26
2018-02-12T08:43:43.338Z,996.26
2018-02-12T08:44:43.410Z,996.26
2018-02-12T08:45:43.405Z,996.26
2018-02-12T08:46:43.290Z,996.26
2018-02-12T08:47:43.285Z,996.26
2018-02-12T08:48:43.322Z,996.26
2018-02-12T08:49:43.341Z,996.26
2018-02-12T08:50:43.362Z,996.26
2018-02-12T08:51:43.341Z,996.26
2018-02-12T08:52:43.379Z,996.26
2018-02-12T08:53:43.342Z,996.26
2018-02-12T08:54:43.310Z,996.26
2018-02-12T08:55:43.353Z,996.26
2018-02-12T08:56:43.425Z,996.26
2018-02-12T08:57:43.356Z,996.26
2018-02-12T08:58:43.433Z,996.26
2018-02-12T08:59:43.369Z,996.26
2018-02-12T09:00:43.436Z,996.26
2018-02-12T09:01:43.359Z,996.26
2018-02-12T09:02:43.428Z,996.26
2018-02-12T09:03:43.361Z,996.26
2018-02-12T09:04:43.438Z,996.26
2018-02-12T09:05:43.359Z,996.26
2018-02-12T09:06:43.367Z,996.26
2018-02-12T09:07:43.430Z,996.26
2018-02-12T09:08:43.372Z,996.26
2018-02-12T09:09:43.434Z,996.26
2018-02-12T09:10:43.440Z,996.26
2018-02-12T09:11:43.429Z,996.26
2018-02-12T09:12:43.365Z,996.26
2018-02-12T09:13:43.439Z,996.26
2018-02-12T09:14:43.369Z,996.26
2018-02-12T09:15:43.414Z,996.26
2018-02-12T09:16:43.452Z,996.26
2018-02-12T09:17:43.401Z,996.26
2018-02-12T09:18:43.467Z,996.26
2018-02-12T09:19:43.342Z,996.26
2018-02-12T09:20:43.439Z,996.26
2018-02-12T09:21:43.444Z,996.26
2018-02-12T09:22:43.400Z,996.26
2018-02-12T09:23:43.464Z,996.26
2018-02-12T09:24:43.346Z,996.26
2018-02-12T09:25:43.345Z,996.26
2018-02-12T09:26:43.423Z,996.26
2018-02-12T09:27:43.412Z,996.26
2018-02-12T09:28:43.422Z,996.26
2018-02-12T09:29:43.467Z,996.26
2018-02-12T09:30:43.442Z,996.26
2018-02-12T09:31:43.466Z,996.26
2018-02-12T09:32:43.443Z,996.26
2018-02-12T09:33:43.356Z,996.26
2018-02-12T09:34:43.447Z,996.26
2018-02-12T09:35:43.451Z,996.26
2018-02-12T09:36:43.349Z,996.26
2018-02-12T09:37:43.483Z,996.26
2018-02-12T09:38:43.566Z,996.26
2018-02-12T09:39:43.447Z,996.26
2018-02-12T09:40:43.391Z,996.26
2018-02-12T09:41:43.478Z,996.26
2018-02-12T09:42:43.434Z,996.26
2018-02-12T09:43:43.432Z,996.26
2018-02-12T09:44:43.428Z,996.26
2018-02-12T09:45:43.502Z,996.26
2018-02-12T09:46:43.480Z,996.26
2018-02-12T09:47:43.359Z,996.26
2018-02-12T09:48:43.495Z,996.26
2018-02-12T09:49:43.496Z,996.26
2018-02-12T09:50:43.378Z,996.26
2018-02-12T09:51:43.429Z,996.26
2018-02-12T09:52:43.428Z,996.26
2018-02-12T09:53:43.453Z,996.26
2018-02-12T09:54:43.402Z,996.26
2018-02-12T09:55:43.476Z,996.26
2018-02-12T09:56:43.431Z,996.26
2018-02-12T09:57:43.427Z,996.26
2018-02-12T09:58:43.476Z,996.26
2018-02-12T09:59:43.457Z,996.26
2018-02-12T10:00:43.367Z,996.26
2018-02-12T10:01:43.496Z,996.26
2018-02-12T10:02:43.371Z,996.26
2018-02-12T10:03:43.502Z,996.26
2018-02-12T10:04:43.502Z,996.26
2018-02-12T10:05:43.388Z,996.26
2018-02-12T10:06:43.442Z,996.26
2018-02-12T10:07:43.389Z,996.26
2018-02-12T10:08:43.466Z,996.26
2018-02-12T10:09:43.471Z,996.26
2018-02-12T10:10:43.411Z,996.26
2018-02-12T10:11:43.506Z,996.26
2018-02-12T10:12:43.373Z,996.26
2018-02-12T10:13:43.493Z,996.26
2018-02-12T10:14:43.478Z,996.26
2018-02-12T10:15:43.445Z,996.26
2018-02-12T10:16:43.409Z,996.26
2018-02-12T10:17:43.476Z,996.26
2018-02-12T10:18:43.463Z,996.26
2018-02-12T10:19:43.475Z,996.26
2018-02-12T10:20:43.408Z,996.26
2018-02-12T10:21:43.479Z,996.26
2018-02-12T10:22:43.409Z,996.26
2018-02-12T10:23:43.484Z,996.26
2018-02-12T10:24:43.410Z,996.26
2018-02-12T10:25:43.497Z,996.26
2018-02-12T10:26:43.438Z,996.26
2018-02-12T10:27:43.521Z,996.26
2018-02-12T10:28:43.379Z,996.26
2018-02-12T10:29:43.481Z,996.26
2018-02-12T10:30:43.451Z,996.26
2018-02-12T10:31:43.401Z,996.26
2018-02-12T10:32:43.460Z,996.26
2018-02-12T10:33:43.449Z,996.26
2018-02-12T10:34:43.559Z,996.26
2018-02-12T10:35:43.546Z,996.26
2018-02-12T10:36:43.505Z,996.26
2018-02-12T10:37:43.523Z,996.26
2018-02-12T10:38:43.522Z,996.26
2018-02-12T10:39:43.519Z,996.26
2018-02-12T10:40:43.466Z,996.26
2018-02-12T10:41:43.444Z,996.26
2018-02-12T10:42:43.492Z,996.26
2018-02-12T10:43:43.461Z,996.26
2018-02-12T10:44:43.529Z,996.26
2018-02-12T10:45:43.468Z,996.26
2018-02-12T10:46:43.490Z,996.26
2018-02-12T10:47:43.464Z,996.26
2018-02-12T10:48:43.399Z,996.26
2018-02-12T10:49:43.524Z,996.26
2018-02-12T10:50:43.519Z,996.26
2018-02-12T10:51:43.401Z,996.26
2018-02-12T10:52:43.468Z,996.26
2018-02-12T10:53:43.530Z,996.26
2018-02-12T10:54:43.468Z,996.26
2018-02-12T10:55:43.401Z,996.26
2018-02-12T10:56:43.510Z,996.26
2018-02-12T10:57:43.428Z,996.26
2018-02-12T10:58:43.403Z,996.26
2018-02-12T10:59:43.451Z,996.26
2018-02-12T11:00:43.454Z,996.26
2018-02-12T11:01:43.373Z,996.26
2018-02-12T11:02:43.402Z,996.26
2018-02-12T11:03:43.409Z,996.26
2018-02-12T11:04:43.452Z,996.26
2018-02-12T11:05:43.459Z,996.26
2018-02-12T11:06:43.498Z,996.26
2018-02-12T11:07:43.509Z,996.26
2018-02-12T11:08:43.434Z,996.26
2018-02-12T11:09:43.437Z,996.26
2018-02-12T11:10:43.513Z,996.26
2018-02-12T11:11:43.440Z,996.26
2018-02-12T11:12:43.509Z,996.26
2018-02-12T11:13:43.440Z,996.26
2018-02-12T11:14:43.508Z,996.26
2018-02-12T11:15:43.494Z,996.26
2018-02-12T11:16:43.442Z,996.26
2018-02-12T11:17:43.436Z,996.26
2018-02-12T11:18:43.405Z,996.26
2018-02-12T11:19:43.452Z,996.26
2018-02-12T11:20:43.491Z,996.26
2018-02-12T11:21:43.418Z,996.26
2018-02-12T11:22:43.412Z,996.26
2018-02-12T11:23:43.497Z,996.26
2018-02-12T11:24:43.498Z,996.26
2018-02-12T11:25:43.373Z,996.26
2018-02-12T11:26:43.368Z,996.26
2018-02-12T11:27:43.467Z,996.26
2018-02-12T11:28:43.465Z,996.26
2018-02-12T11:29:43.368Z,996.26
2018-02-12T11:30:43.420Z,996.26
2018-02-12T11:31:43.424Z,996.26
2018-02-12T11:32:43.371Z,996.26
2018-02-12T11:33:43.376Z,996.26
2018-02-12T11:34:43.371Z,996.26
2018-02-12T11:35:43.478Z,996.26
2018-02-12T11:36:43.561Z,996.26
2018-02-12T11:37:43.560Z,996.26
2018-02-12T11:38:43.556Z,996.26
2018-02-12T11:39:43.554Z,996.26
2018-02-12T11:40:43.503Z,996.26
2018-02-12T11:41:43.490Z,996.26
2018-02-12T11:42:43.503Z,996.26
2018-02-12T11:43:43.427Z,996.26
2018-02-12T11:44:43.556Z,996.26
2018-02-12T11:45:43.545Z,996.26
2018-02-12T11:46:43.423Z,996.26
2018-02-12T11:47:43.531Z,996.26
2018-02-12T11:48:43.568Z,996.26
2018-02-12T11:49:43.431Z,996.26
2018-02-12T11:50:43.495Z,996.26
2018-02-12T11:51:43.534Z,996.26
2018-02-12T11:52:43.492Z,996.26
2018-02-12T11:53:43.508Z,996.26
2018-02-12T11:54:43.493Z,996.26
2018-02-12T11:55:43.427Z,996.26
2018-02-12T11:56:43.401Z,996.26
2018-02-12T11:57:43.493Z,996.26
2018-02-12T11:58:43.429Z,996.26
2018-02-12T11:59:43.493Z,996.26
2018-02-12T12:00:43.424Z,996.26
2018-02-12T12:01:43.519Z,996.26
2018-02-12T12:02:43.428Z,996.26
2018-02-12T12:03:43.514Z,996.26
2018-02-12T12:04:43.493Z,996.26
2018-02-12T12:05:43.492Z,996.26
2018-02-12T12:06:43.536Z,996.26
2018-02-12T12:07:43.399Z,996.26
2018-02-12T12:08:43.405Z,996.26
2018-02-12T12:09:43.451Z,996.26
2018-02-12T12:10:43.524Z,996.26
2018-02-12T12:11:43.446Z,996.26
2018-02-12T12:12:43.447Z,996.26
2018-02-12T12:13:43.543Z,996.26
2018-02-12T12:14:43.495Z,996.26
2018-02-12T12:15:43.549Z,996.26
2018-02-12T12:16:43.476Z,996.26
2018-02-12T12:17:43.547Z,996.26
2018-02-12T12:18:43.478Z,996.26
2018-02-12T12:19:43.549Z,996.26
2018-02-12T12:20:43.481Z,996.26
2018-02-12T12:21:43.546Z,996.26
2018-02-12T12:22:43.482Z,996.26
2018-02-12T12:23:43.552Z,996.26
2018-02-12T12:24:43.518Z,996.26
2018-02-12T12:25:43.544Z,996.26
2018-02-12T12:26:43.548Z,996.26
2018-02-12T12:27:43.546Z,996.26
2018-02-12T12:28:43.588Z,996.26